UAE777 KSYR-KJFK
Flight info
| Callsign | UAE777 |
|---|---|
| Flight time | N/A |
| Altitude | 29000 |
| Route | RKA BDR DPK |
| Aircraft | A333/H-SDE3GHIJ2J3J5M1RVWXY/LB2D1 |
Departure
| Time | 2026-04-27 23:39 |
|---|---|
| Airport | Syracuse Hancock International Airport (KSYR) |
Arrival
| Time | N/A |
|---|---|
| Airport | John F. Kennedy International Airport (KJFK) |
| Time | Latitude | Longitude | Altitude | Speed | Heading |
|---|---|---|---|---|---|
| 2026-04-27 22:54 | 43.11269 | -76.10868 | 427 ft | 0 kts | 297° |
| 2026-04-27 23:31 | 43.11272 | -76.10874 | 427 ft | 0 kts | 297° |
| 2026-04-27 23:31 | 43.11271 | -76.10874 | 427 ft | 0 kts | 296° |
| 2026-04-27 23:31 | 43.11269 | -76.10864 | 427 ft | 3 kts | 266° |
| 2026-04-27 23:31 | 43.11294 | -76.10829 | 427 ft | 9 kts | 200° |
| 2026-04-27 23:32 | 43.11304 | -76.10825 | 427 ft | 0 kts | 187° |
| 2026-04-27 23:33 | 43.11268 | -76.10824 | 427 ft | 7 kts | 180° |
| 2026-04-27 23:34 | 43.11187 | -76.10823 | 427 ft | 17 kts | 180° |
| 2026-04-27 23:34 | 43.11072 | -76.10818 | 427 ft | 8 kts | 180° |
| 2026-04-27 23:34 | 43.11040 | -76.10823 | 427 ft | 3 kts | 194° |
| 2026-04-27 23:34 | 43.11023 | -76.10834 | 427 ft | 2 kts | 212° |
| 2026-04-27 23:35 | 43.11012 | -76.10847 | 427 ft | 1 kts | 228° |
| 2026-04-27 23:35 | 43.10999 | -76.10934 | 427 ft | 19 kts | 267° |
| 2026-04-27 23:35 | 43.10994 | -76.11133 | 427 ft | 21 kts | 268° |
| 2026-04-27 23:35 | 43.10986 | -76.11337 | 427 ft | 21 kts | 266° |
| 2026-04-27 23:36 | 43.10979 | -76.11528 | 430 ft | 19 kts | 268° |
| 2026-04-27 23:36 | 43.10974 | -76.11707 | 430 ft | 18 kts | 268° |
| 2026-04-27 23:36 | 43.10969 | -76.11880 | 430 ft | 18 kts | 268° |
| 2026-04-27 23:36 | 43.10963 | -76.12049 | 431 ft | 17 kts | 268° |
| 2026-04-27 23:37 | 43.10958 | -76.12212 | 431 ft | 16 kts | 267° |
| 2026-04-27 23:37 | 43.10952 | -76.12373 | 430 ft | 17 kts | 267° |
| 2026-04-27 23:37 | 43.10946 | -76.12535 | 431 ft | 13 kts | 267° |
| 2026-04-27 23:37 | 43.10921 | -76.12611 | 431 ft | 9 kts | 213° |
| 2026-04-27 23:38 | 43.10827 | -76.12535 | 431 ft | 27 kts | 101° |
| 2026-04-27 23:38 | 43.10836 | -76.12107 | 434 ft | 66 kts | 87° |
| 2026-04-27 23:38 | 43.10864 | -76.11247 | 427 ft | 117 kts | 87° |
| 2026-04-27 23:38 | 43.10915 | -76.09763 | 421 ft | 191 kts | 88° |
| 2026-04-27 23:39 | 43.10989 | -76.07819 | 1140 ft | 212 kts | 89° |
| 2026-04-27 23:39 | 43.11083 | -76.05859 | 2423 ft | 222 kts | 89° |
| 2026-04-27 23:39 | 43.11191 | -76.03714 | 3487 ft | 240 kts | 89° |
| 2026-04-27 23:39 | 43.11322 | -76.01351 | 3856 ft | 266 kts | 88° |
| 2026-04-27 23:40 | 43.11473 | -75.98707 | 4027 ft | 287 kts | 88° |
| 2026-04-27 23:40 | 43.11626 | -75.95872 | 4021 ft | 301 kts | 88° |
| 2026-04-27 23:40 | 43.11774 | -75.93005 | 4062 ft | 315 kts | 88° |
| 2026-04-27 23:40 | 43.11897 | -75.90068 | 5153 ft | 309 kts | 94° |
| 2026-04-27 23:41 | 43.11427 | -75.87278 | 6140 ft | 304 kts | 115° |
| 2026-04-27 23:41 | 43.10445 | -75.84688 | 6894 ft | 307 kts | 126° |
| 2026-04-27 23:41 | 43.08935 | -75.82639 | 7013 ft | 310 kts | 143° |
| 2026-04-27 23:41 | 43.07217 | -75.80890 | 6968 ft | 307 kts | 144° |
| 2026-04-27 23:42 | 43.05469 | -75.79174 | 7047 ft | 310 kts | 145° |
| 2026-04-27 23:42 | 43.03708 | -75.77460 | 7067 ft | 309 kts | 145° |
| 2026-04-27 23:42 | 43.01951 | -75.75758 | 7009 ft | 307 kts | 145° |
| 2026-04-27 23:42 | 43.00204 | -75.74068 | 7023 ft | 309 kts | 144° |
| 2026-04-27 23:43 | 42.98450 | -75.72375 | 7045 ft | 310 kts | 144° |
| 2026-04-27 23:43 | 42.96673 | -75.70657 | 7047 ft | 310 kts | 145° |
| 2026-04-27 23:43 | 42.94915 | -75.68958 | 7040 ft | 310 kts | 145° |
| 2026-04-27 23:43 | 42.93177 | -75.67224 | 7035 ft | 313 kts | 140° |
| 2026-04-27 23:44 | 42.91568 | -75.65232 | 7039 ft | 313 kts | 137° |
| 2026-04-27 23:44 | 42.89868 | -75.63383 | 7038 ft | 312 kts | 144° |
| 2026-04-27 23:44 | 42.88109 | -75.61668 | 7046 ft | 312 kts | 145° |
| 2026-04-27 23:44 | 42.86331 | -75.59968 | 7040 ft | 310 kts | 145° |
| 2026-04-27 23:45 | 42.84587 | -75.58308 | 7041 ft | 310 kts | 145° |
| 2026-04-27 23:45 | 42.82802 | -75.56614 | 7041 ft | 311 kts | 145° |
| 2026-04-27 23:45 | 42.81021 | -75.54925 | 7042 ft | 312 kts | 145° |
| 2026-04-27 23:45 | 42.79248 | -75.53244 | 7043 ft | 310 kts | 145° |
| 2026-04-27 23:46 | 42.77481 | -75.51568 | 7040 ft | 313 kts | 145° |
| 2026-04-27 23:46 | 42.75608 | -75.49790 | 7067 ft | 347 kts | 145° |
| 2026-04-27 23:46 | 42.73591 | -75.47876 | 7066 ft | 358 kts | 145° |
| 2026-04-27 23:46 | 42.71581 | -75.45968 | 6982 ft | 343 kts | 145° |
| 2026-04-27 23:47 | 42.69708 | -75.44183 | 7058 ft | 321 kts | 145° |
| 2026-04-27 23:47 | 42.67930 | -75.42487 | 7028 ft | 305 kts | 145° |
| 2026-04-27 23:47 | 42.66216 | -75.40849 | 7051 ft | 301 kts | 145° |
| 2026-04-27 23:47 | 42.64481 | -75.39197 | 7061 ft | 302 kts | 144° |
| 2026-04-27 23:48 | 42.62775 | -75.37574 | 7064 ft | 301 kts | 144° |
| 2026-04-27 23:48 | 42.61055 | -75.35951 | 7059 ft | 302 kts | 144° |
| 2026-04-27 23:48 | 42.59324 | -75.34325 | 7052 ft | 301 kts | 145° |
| 2026-04-27 23:48 | 42.57594 | -75.32714 | 7067 ft | 301 kts | 145° |
| 2026-04-27 23:49 | 42.55888 | -75.31127 | 7062 ft | 300 kts | 145° |
| 2026-04-27 23:49 | 42.54156 | -75.29517 | 7053 ft | 301 kts | 146° |
| 2026-04-27 23:49 | 42.52431 | -75.27903 | 7057 ft | 302 kts | 145° |
| 2026-04-27 23:49 | 42.50723 | -75.26311 | 7063 ft | 302 kts | 145° |
| 2026-04-27 23:50 | 42.49004 | -75.24670 | 7052 ft | 300 kts | 140° |
| 2026-04-27 23:50 | 42.47722 | -75.22445 | 7063 ft | 300 kts | 120° |
| 2026-04-27 23:50 | 42.46709 | -75.19993 | 7075 ft | 300 kts | 119° |
| 2026-04-27 23:50 | 42.45718 | -75.17521 | 7064 ft | 300 kts | 118° |
| 2026-04-27 23:51 | 42.44729 | -75.15012 | 7074 ft | 300 kts | 118° |
| 2026-04-27 23:51 | 42.43749 | -75.12501 | 7073 ft | 302 kts | 118° |
| 2026-04-27 23:51 | 42.42773 | -75.09989 | 7076 ft | 301 kts | 117° |
| 2026-04-27 23:51 | 42.41811 | -75.07513 | 7078 ft | 300 kts | 117° |
| 2026-04-27 23:52 | 42.40837 | -75.04998 | 7074 ft | 300 kts | 117° |
| 2026-04-27 23:52 | 42.39864 | -75.02492 | 7077 ft | 299 kts | 117° |
| 2026-04-27 23:52 | 42.38908 | -75.00031 | 7071 ft | 290 kts | 117° |
| 2026-04-27 23:52 | 42.37995 | -74.97680 | 7059 ft | 275 kts | 117° |
| 2026-04-27 23:53 | 42.37138 | -74.95475 | 7062 ft | 262 kts | 117° |
| 2026-04-27 23:53 | 42.36291 | -74.93298 | 7075 ft | 257 kts | 117° |
| 2026-04-27 23:53 | 42.35457 | -74.91160 | 7081 ft | 255 kts | 117° |
| 2026-04-27 23:53 | 42.34636 | -74.89051 | 7074 ft | 258 kts | 117° |
| 2026-04-27 23:54 | 42.33798 | -74.86903 | 7082 ft | 257 kts | 117° |
| 2026-04-27 23:54 | 42.32966 | -74.84772 | 7081 ft | 257 kts | 117° |
| 2026-04-27 23:54 | 42.32128 | -74.82626 | 7075 ft | 256 kts | 117° |
| 2026-04-27 23:54 | 42.31293 | -74.80487 | 7082 ft | 258 kts | 117° |
| 2026-04-27 23:55 | 42.30468 | -74.78380 | 7078 ft | 255 kts | 117° |
| 2026-04-27 23:55 | 42.29629 | -74.76235 | 7080 ft | 255 kts | 116° |
| 2026-04-27 23:55 | 42.28807 | -74.74137 | 7075 ft | 256 kts | 116° |
| 2026-04-27 23:55 | 42.27969 | -74.71996 | 7076 ft | 257 kts | 116° |
| 2026-04-27 23:56 | 42.27135 | -74.69873 | 7074 ft | 258 kts | 116° |
| 2026-04-27 23:56 | 42.26307 | -74.67762 | 7078 ft | 255 kts | 117° |
| 2026-04-27 23:56 | 42.25472 | -74.65634 | 7082 ft | 255 kts | 117° |
| 2026-04-27 23:56 | 42.24641 | -74.63521 | 7078 ft | 257 kts | 117° |
| 2026-04-27 23:57 | 42.23801 | -74.61384 | 7083 ft | 258 kts | 117° |
| 2026-04-27 23:57 | 42.22962 | -74.59256 | 7080 ft | 256 kts | 116° |
| 2026-04-27 23:57 | 42.22124 | -74.57131 | 7082 ft | 258 kts | 116° |
| 2026-04-27 23:57 | 42.21283 | -74.55001 | 7076 ft | 257 kts | 116° |
| 2026-04-27 23:58 | 42.20629 | -74.52783 | 7065 ft | 256 kts | 97° |
| 2026-04-27 23:58 | 42.20678 | -74.50400 | 7101 ft | 257 kts | 83° |
| 2026-04-27 23:58 | 42.20830 | -74.48034 | 7079 ft | 256 kts | 85° |
| 2026-04-27 23:58 | 42.20976 | -74.45657 | 7077 ft | 254 kts | 84° |
| 2026-04-27 23:59 | 42.21122 | -74.43279 | 7083 ft | 254 kts | 84° |
| 2026-04-27 23:59 | 42.21266 | -74.40884 | 7077 ft | 256 kts | 84° |
| 2026-04-27 23:59 | 42.21411 | -74.38509 | 7071 ft | 257 kts | 85° |
| 2026-04-27 23:59 | 42.21554 | -74.36121 | 7075 ft | 254 kts | 85° |
| 2026-04-28 00:00 | 42.21698 | -74.33716 | 7082 ft | 256 kts | 85° |
| 2026-04-28 00:00 | 42.21839 | -74.31340 | 7068 ft | 255 kts | 85° |
| 2026-04-28 00:00 | 42.21979 | -74.28965 | 7068 ft | 254 kts | 85° |
| 2026-04-28 00:00 | 42.22121 | -74.26572 | 7067 ft | 255 kts | 85° |
| 2026-04-28 00:01 | 42.22260 | -74.24195 | 7058 ft | 255 kts | 85° |
| 2026-04-28 00:01 | 42.22401 | -74.21799 | 7049 ft | 252 kts | 85° |
| 2026-04-28 00:01 | 42.22541 | -74.19415 | 7054 ft | 253 kts | 85° |
| 2026-04-28 00:01 | 42.22678 | -74.17074 | 7043 ft | 254 kts | 85° |
| 2026-04-28 00:02 | 42.22815 | -74.14719 | 7044 ft | 255 kts | 85° |
| 2026-04-28 00:02 | 42.22953 | -74.12334 | 7046 ft | 253 kts | 85° |
| 2026-04-28 00:02 | 42.23090 | -74.09964 | 7049 ft | 252 kts | 85° |
| 2026-04-28 00:02 | 42.23226 | -74.07602 | 7055 ft | 252 kts | 85° |
| 2026-04-28 00:03 | 42.23362 | -74.05239 | 7055 ft | 255 kts | 85° |
| 2026-04-28 00:03 | 42.23498 | -74.02841 | 7065 ft | 254 kts | 85° |
| 2026-04-28 00:03 | 42.23634 | -74.00442 | 7054 ft | 256 kts | 85° |
| 2026-04-28 00:03 | 42.23767 | -73.98085 | 7056 ft | 252 kts | 85° |
| 2026-04-28 00:04 | 42.23901 | -73.95724 | 7052 ft | 254 kts | 85° |
| 2026-04-28 00:04 | 42.24170 | -73.90919 | 7058 ft | 256 kts | 85° |
| 2026-04-28 00:04 | 42.24302 | -73.88567 | 7052 ft | 253 kts | 85° |
| 2026-04-28 00:05 | 42.24435 | -73.86173 | 7064 ft | 257 kts | 85° |